sensor_id;sensor_type;location;lat;lon;timestamp;temperature;humidity
81902;DHT22;71369;50.796;3.290;2023-08-12T00:00:19;21.40;80.30
81902;DHT22;71369;50.796;3.290;2023-08-12T00:02:45;21.40;80.60
81902;DHT22;71369;50.796;3.290;2023-08-12T00:05:12;21.50;80.30
81902;DHT22;71369;50.796;3.290;2023-08-12T00:07:39;21.50;80.30
81902;DHT22;71369;50.796;3.290;2023-08-12T00:10:07;21.50;80.50
81902;DHT22;71369;50.796;3.290;2023-08-12T00:12:34;21.50;80.70
81902;DHT22;71369;50.796;3.290;2023-08-12T00:15:00;21.50;80.90
81902;DHT22;71369;50.796;3.290;2023-08-12T00:17:26;21.50;80.80
81902;DHT22;71369;50.796;3.290;2023-08-12T00:19:52;21.30;80.50
81902;DHT22;71369;50.796;3.290;2023-08-12T00:22:18;21.40;80.70
81902;DHT22;71369;50.796;3.290;2023-08-12T00:24:44;21.40;80.20
81902;DHT22;71369;50.796;3.290;2023-08-12T00:27:10;21.40;80.50
81902;DHT22;71369;50.796;3.290;2023-08-12T00:29:36;21.40;81.00
81902;DHT22;71369;50.796;3.290;2023-08-12T00:32:03;21.30;81.50
81902;DHT22;71369;50.796;3.290;2023-08-12T00:34:29;21.30;81.70
81902;DHT22;71369;50.796;3.290;2023-08-12T00:36:54;21.40;81.80
81902;DHT22;71369;50.796;3.290;2023-08-12T00:39:20;21.40;81.70
81902;DHT22;71369;50.796;3.290;2023-08-12T00:41:46;21.30;81.70
81902;DHT22;71369;50.796;3.290;2023-08-12T00:44:12;21.40;81.70
81902;DHT22;71369;50.796;3.290;2023-08-12T00:46:41;21.40;81.70
81902;DHT22;71369;50.796;3.290;2023-08-12T00:49:08;21.30;81.90
81902;DHT22;71369;50.796;3.290;2023-08-12T00:51:35;21.30;82.10
81902;DHT22;71369;50.796;3.290;2023-08-12T00:54:04;21.30;82.20
81902;DHT22;71369;50.796;3.290;2023-08-12T00:56:31;21.30;82.50
81902;DHT22;71369;50.796;3.290;2023-08-12T00:58:59;21.20;83.00
81902;DHT22;71369;50.796;3.290;2023-08-12T01:01:25;21.10;83.60
81902;DHT22;71369;50.796;3.290;2023-08-12T01:03:52;21.00;84.10
81902;DHT22;71369;50.796;3.290;2023-08-12T01:06:17;21.00;84.40
81902;DHT22;71369;50.796;3.290;2023-08-12T01:08:43;21.00;84.80
81902;DHT22;71369;50.796;3.290;2023-08-12T01:11:26;20.90;85.70
81902;DHT22;71369;50.796;3.290;2023-08-12T01:14:00;20.80;85.90
81902;DHT22;71369;50.796;3.290;2023-08-12T01:16:31;20.80;86.40
81902;DHT22;71369;50.796;3.290;2023-08-12T01:18:59;20.70;86.80
81902;DHT22;71369;50.796;3.290;2023-08-12T01:21:28;20.70;87.30
81902;DHT22;71369;50.796;3.290;2023-08-12T01:23:55;20.70;87.50
81902;DHT22;71369;50.796;3.290;2023-08-12T01:26:21;20.60;87.90
81902;DHT22;71369;50.796;3.290;2023-08-12T01:28:46;20.70;88.00
81902;DHT22;71369;50.796;3.290;2023-08-12T01:31:23;20.60;88.30
81902;DHT22;71369;50.796;3.290;2023-08-12T01:34:06;20.50;89.00
81902;DHT22;71369;50.796;3.290;2023-08-12T01:36:34;20.60;89.30
81902;DHT22;71369;50.796;3.290;2023-08-12T01:39:01;20.50;89.80
81902;DHT22;71369;50.796;3.290;2023-08-12T01:41:27;20.50;90.00
81902;DHT22;71369;50.796;3.290;2023-08-12T01:43:53;20.50;90.20
81902;DHT22;71369;50.796;3.290;2023-08-12T01:46:19;20.50;90.30
81902;DHT22;71369;50.796;3.290;2023-08-12T01:48:44;20.50;90.40
81902;DHT22;71369;50.796;3.290;2023-08-12T01:51:11;20.50;90.50
81902;DHT22;71369;50.796;3.290;2023-08-12T01:53:37;20.50;90.60
81902;DHT22;71369;50.796;3.290;2023-08-12T01:56:03;20.40;90.80
81902;DHT22;71369;50.796;3.290;2023-08-12T01:58:29;20.40;91.10
81902;DHT22;71369;50.796;3.290;2023-08-12T02:00:54;20.40;91.20
81902;DHT22;71369;50.796;3.290;2023-08-12T02:03:20;20.40;91.30
81902;DHT22;71369;50.796;3.290;2023-08-12T02:05:46;20.40;91.40
81902;DHT22;71369;50.796;3.290;2023-08-12T02:08:13;20.40;91.40
81902;DHT22;71369;50.796;3.290;2023-08-12T02:10:39;20.30;91.50
81902;DHT22;71369;50.796;3.290;2023-08-12T02:13:04;20.30;91.70
81902;DHT22;71369;50.796;3.290;2023-08-12T02:15:30;20.30;91.70
81902;DHT22;71369;50.796;3.290;2023-08-12T02:17:56;20.30;91.70
81902;DHT22;71369;50.796;3.290;2023-08-12T02:20:22;20.30;91.60
81902;DHT22;71369;50.796;3.290;2023-08-12T02:22:48;20.30;91.60
81902;DHT22;71369;50.796;3.290;2023-08-12T02:25:13;20.20;91.80
81902;DHT22;71369;50.796;3.290;2023-08-12T02:27:39;20.20;91.90
81902;DHT22;71369;50.796;3.290;2023-08-12T02:30:05;20.20;92.00
81902;DHT22;71369;50.796;3.290;2023-08-12T02:32:31;20.20;91.80
81902;DHT22;71369;50.796;3.290;2023-08-12T02:34:57;20.20;92.10
81902;DHT22;71369;50.796;3.290;2023-08-12T02:37:23;20.20;92.10
81902;DHT22;71369;50.796;3.290;2023-08-12T02:39:48;20.20;92.10
81902;DHT22;71369;50.796;3.290;2023-08-12T02:42:14;20.20;92.20
81902;DHT22;71369;50.796;3.290;2023-08-12T02:44:40;20.20;92.20
81902;DHT22;71369;50.796;3.290;2023-08-12T02:47:05;20.20;92.00
81902;DHT22;71369;50.796;3.290;2023-08-12T02:49:31;20.20;92.20
81902;DHT22;71369;50.796;3.290;2023-08-12T02:51:57;20.10;92.30
81902;DHT22;71369;50.796;3.290;2023-08-12T02:54:22;20.20;92.30
81902;DHT22;71369;50.796;3.290;2023-08-12T02:56:50;20.10;92.30
81902;DHT22;71369;50.796;3.290;2023-08-12T02:59:16;20.10;92.20
81902;DHT22;71369;50.796;3.290;2023-08-12T03:01:42;20.10;92.30
81902;DHT22;71369;50.796;3.290;2023-08-12T03:04:08;20.10;92.50
81902;DHT22;71369;50.796;3.290;2023-08-12T03:06:33;20.10;92.50
81902;DHT22;71369;50.796;3.290;2023-08-12T03:08:59;20.10;92.50
81902;DHT22;71369;50.796;3.290;2023-08-12T03:11:25;20.10;92.50
81902;DHT22;71369;50.796;3.290;2023-08-12T03:13:51;20.10;92.50
81902;DHT22;71369;50.796;3.290;2023-08-12T03:16:16;20.20;92.40
81902;DHT22;71369;50.796;3.290;2023-08-12T03:18:42;20.10;92.50
81902;DHT22;71369;50.796;3.290;2023-08-12T03:21:10;20.10;92.60
81902;DHT22;71369;50.796;3.290;2023-08-12T03:23:37;20.10;92.40
81902;DHT22;71369;50.796;3.290;2023-08-12T03:26:04;20.20;92.30
81902;DHT22;71369;50.796;3.290;2023-08-12T03:28:30;20.20;92.20
81902;DHT22;71369;50.796;3.290;2023-08-12T03:30:56;20.20;92.00
81902;DHT22;71369;50.796;3.290;2023-08-12T03:33:22;20.10;92.00
81902;DHT22;71369;50.796;3.290;2023-08-12T03:35:48;20.10;92.20
81902;DHT22;71369;50.796;3.290;2023-08-12T03:38:14;20.10;92.10
81902;DHT22;71369;50.796;3.290;2023-08-12T03:40:41;20.10;92.30
81902;DHT22;71369;50.796;3.290;2023-08-12T03:43:07;20.00;92.40
81902;DHT22;71369;50.796;3.290;2023-08-12T03:45:39;20.00;92.40
81902;DHT22;71369;50.796;3.290;2023-08-12T03:48:05;19.90;92.60
81902;DHT22;71369;50.796;3.290;2023-08-12T03:50:34;19.90;92.60
81902;DHT22;71369;50.796;3.290;2023-08-12T03:53:00;20.00;92.50
81902;DHT22;71369;50.796;3.290;2023-08-12T03:55:26;20.00;92.50
81902;DHT22;71369;50.796;3.290;2023-08-12T03:57:52;19.90;92.60
81902;DHT22;71369;50.796;3.290;2023-08-12T04:00:17;20.00;92.70
81902;DHT22;71369;50.796;3.290;2023-08-12T04:02:43;20.00;92.60
81902;DHT22;71369;50.796;3.290;2023-08-12T04:05:09;20.00;92.50
81902;DHT22;71369;50.796;3.290;2023-08-12T04:07:38;20.00;92.40
81902;DHT22;71369;50.796;3.290;2023-08-12T04:10:03;20.00;92.60
81902;DHT22;71369;50.796;3.290;2023-08-12T04:12:29;20.00;92.70
81902;DHT22;71369;50.796;3.290;2023-08-12T04:14:55;20.00;92.60
81902;DHT22;71369;50.796;3.290;2023-08-12T04:17:21;20.00;92.70
81902;DHT22;71369;50.796;3.290;2023-08-12T04:19:46;20.00;92.90
81902;DHT22;71369;50.796;3.290;2023-08-12T04:22:12;20.00;92.80
81902;DHT22;71369;50.796;3.290;2023-08-12T04:24:38;20.00;92.80
81902;DHT22;71369;50.796;3.290;2023-08-12T04:27:04;20.10;92.70
81902;DHT22;71369;50.796;3.290;2023-08-12T04:29:29;20.10;92.80
81902;DHT22;71369;50.796;3.290;2023-08-12T04:31:55;20.00;93.00
81902;DHT22;71369;50.796;3.290;2023-08-12T04:34:21;20.00;93.10
81902;DHT22;71369;50.796;3.290;2023-08-12T04:36:46;20.00;93.40
81902;DHT22;71369;50.796;3.290;2023-08-12T04:39:12;20.00;93.40
81902;DHT22;71369;50.796;3.290;2023-08-12T04:41:38;20.00;93.40
81902;DHT22;71369;50.796;3.290;2023-08-12T04:44:05;19.80;92.50
81902;DHT22;71369;50.796;3.290;2023-08-12T04:46:31;19.50;92.50
81902;DHT22;71369;50.796;3.290;2023-08-12T04:48:57;19.20;92.70
81902;DHT22;71369;50.796;3.290;2023-08-12T04:51:23;19.10;92.70
81902;DHT22;71369;50.796;3.290;2023-08-12T04:53:48;18.90;92.90
81902;DHT22;71369;50.796;3.290;2023-08-12T04:56:14;18.60;92.60
81902;DHT22;71369;50.796;3.290;2023-08-12T04:58:40;18.40;91.90
81902;DHT22;71369;50.796;3.290;2023-08-12T05:01:07;18.20;91.90
81902;DHT22;71369;50.796;3.290;2023-08-12T05:03:33;17.90;92.00
81902;DHT22;71369;50.796;3.290;2023-08-12T05:05:58;17.80;92.40
81902;DHT22;71369;50.796;3.290;2023-08-12T05:08:24;17.60;92.80
81902;DHT22;71369;50.796;3.290;2023-08-12T05:10:50;17.50;93.10
81902;DHT22;71369;50.796;3.290;2023-08-12T05:13:17;17.40;93.50
81902;DHT22;71369;50.796;3.290;2023-08-12T05:15:45;17.50;93.50
81902;DHT22;71369;50.796;3.290;2023-08-12T05:18:13;17.50;93.40
81902;DHT22;71369;50.796;3.290;2023-08-12T05:20:40;17.50;93.50
81902;DHT22;71369;50.796;3.290;2023-08-12T05:23:07;17.50;93.40
81902;DHT22;71369;50.796;3.290;2023-08-12T05:25:33;17.50;93.30
81902;DHT22;71369;50.796;3.290;2023-08-12T05:27:58;17.50;93.30
81902;DHT22;71369;50.796;3.290;2023-08-12T05:30:24;17.40;92.80
81902;DHT22;71369;50.796;3.290;2023-08-12T05:32:50;17.30;92.90
81902;DHT22;71369;50.796;3.290;2023-08-12T05:35:15;17.20;92.60
81902;DHT22;71369;50.796;3.290;2023-08-12T05:37:41;17.20;92.40
81902;DHT22;71369;50.796;3.290;2023-08-12T05:40:09;17.20;92.80
81902;DHT22;71369;50.796;3.290;2023-08-12T05:42:35;17.30;92.50
81902;DHT22;71369;50.796;3.290;2023-08-12T05:45:01;17.30;92.30
81902;DHT22;71369;50.796;3.290;2023-08-12T05:47:27;17.30;92.30
81902;DHT22;71369;50.796;3.290;2023-08-12T05:49:53;17.30;91.40
81902;DHT22;71369;50.796;3.290;2023-08-12T05:52:19;17.20;91.90
81902;DHT22;71369;50.796;3.290;2023-08-12T05:54:44;17.20;91.90
81902;DHT22;71369;50.796;3.290;2023-08-12T05:57:10;17.10;92.10
81902;DHT22;71369;50.796;3.290;2023-08-12T05:59:36;17.00;92.00
81902;DHT22;71369;50.796;3.290;2023-08-12T06:02:02;16.90;92.00
81902;DHT22;71369;50.796;3.290;2023-08-12T06:04:28;17.00;92.50
81902;DHT22;71369;50.796;3.290;2023-08-12T06:06:53;17.00;92.30
81902;DHT22;71369;50.796;3.290;2023-08-12T06:09:19;17.20;92.20
81902;DHT22;71369;50.796;3.290;2023-08-12T06:11:44;17.30;91.90
81902;DHT22;71369;50.796;3.290;2023-08-12T06:14:10;17.30;91.60
81902;DHT22;71369;50.796;3.290;2023-08-12T06:16:36;17.20;91.50
81902;DHT22;71369;50.796;3.290;2023-08-12T06:19:01;17.20;91.80
81902;DHT22;71369;50.796;3.290;2023-08-12T06:21:27;17.20;91.90
81902;DHT22;71369;50.796;3.290;2023-08-12T06:23:53;17.30;92.00
81902;DHT22;71369;50.796;3.290;2023-08-12T06:26:19;17.60;91.90
81902;DHT22;71369;50.796;3.290;2023-08-12T06:28:44;17.60;92.10
81902;DHT22;71369;50.796;3.290;2023-08-12T06:31:10;17.50;91.90
81902;DHT22;71369;50.796;3.290;2023-08-12T06:33:36;17.70;92.00
81902;DHT22;71369;50.796;3.290;2023-08-12T06:36:02;17.60;91.40
81902;DHT22;71369;50.796;3.290;2023-08-12T06:38:28;17.50;91.80
81902;DHT22;71369;50.796;3.290;2023-08-12T06:40:54;17.50;91.80
81902;DHT22;71369;50.796;3.290;2023-08-12T06:43:20;17.50;91.90
81902;DHT22;71369;50.796;3.290;2023-08-12T06:45:46;17.40;91.40
81902;DHT22;71369;50.796;3.290;2023-08-12T06:48:11;17.40;91.80
81902;DHT22;71369;50.796;3.290;2023-08-12T06:50:37;17.40;91.90
81902;DHT22;71369;50.796;3.290;2023-08-12T06:53:03;17.30;92.10
81902;DHT22;71369;50.796;3.290;2023-08-12T06:55:29;17.30;92.60
81902;DHT22;71369;50.796;3.290;2023-08-12T06:57:55;17.40;91.90
81902;DHT22;71369;50.796;3.290;2023-08-12T07:00:20;17.40;91.80
81902;DHT22;71369;50.796;3.290;2023-08-12T07:02:46;17.70;92.00
81902;DHT22;71369;50.796;3.290;2023-08-12T07:05:12;17.80;91.70
81902;DHT22;71369;50.796;3.290;2023-08-12T07:07:38;18.10;91.70
81902;DHT22;71369;50.796;3.290;2023-08-12T07:10:04;18.30;91.00
81902;DHT22;71369;50.796;3.290;2023-08-12T07:12:32;18.50;90.30
81902;DHT22;71369;50.796;3.290;2023-08-12T07:14:58;18.70;90.00
81902;DHT22;71369;50.796;3.290;2023-08-12T07:17:24;19.10;90.10
81902;DHT22;71369;50.796;3.290;2023-08-12T07:19:50;19.80;88.50
81902;DHT22;71369;50.796;3.290;2023-08-12T07:22:15;20.10;85.00
81902;DHT22;71369;50.796;3.290;2023-08-12T07:24:45;19.60;84.80
81902;DHT22;71369;50.796;3.290;2023-08-12T07:27:10;19.80;83.80
81902;DHT22;71369;50.796;3.290;2023-08-12T07:29:36;19.50;81.80
81902;DHT22;71369;50.796;3.290;2023-08-12T07:32:02;19.50;83.60
81902;DHT22;71369;50.796;3.290;2023-08-12T07:34:28;19.60;84.10
81902;DHT22;71369;50.796;3.290;2023-08-12T07:36:53;19.50;81.00
81902;DHT22;71369;50.796;3.290;2023-08-12T07:39:19;19.50;82.10
81902;DHT22;71369;50.796;3.290;2023-08-12T07:41:45;19.40;83.90
81902;DHT22;71369;50.796;3.290;2023-08-12T07:44:11;19.70;84.10
81902;DHT22;71369;50.796;3.290;2023-08-12T07:46:36;19.80;83.20
81902;DHT22;71369;50.796;3.290;2023-08-12T07:49:02;20.00;81.90
81902;DHT22;71369;50.796;3.290;2023-08-12T07:52:24;20.00;80.40
81902;DHT22;71369;50.796;3.290;2023-08-12T07:56:07;19.70;81.30
81902;DHT22;71369;50.796;3.290;2023-08-12T07:58:34;19.60;83.60
81902;DHT22;71369;50.796;3.290;2023-08-12T08:00:59;19.80;82.90
81902;DHT22;71369;50.796;3.290;2023-08-12T08:03:25;19.60;82.50
81902;DHT22;71369;50.796;3.290;2023-08-12T08:05:51;19.50;83.00
81902;DHT22;71369;50.796;3.290;2023-08-12T08:08:18;19.60;83.00
81902;DHT22;71369;50.796;3.290;2023-08-12T08:10:45;19.80;81.80
81902;DHT22;71369;50.796;3.290;2023-08-12T08:13:10;19.80;80.70
81902;DHT22;71369;50.796;3.290;2023-08-12T08:15:36;20.10;82.30
81902;DHT22;71369;50.796;3.290;2023-08-12T08:18:03;20.20;80.40
81902;DHT22;71369;50.796;3.290;2023-08-12T08:20:30;20.50;77.50
81902;DHT22;71369;50.796;3.290;2023-08-12T08:22:56;21.00;77.70
81902;DHT22;71369;50.796;3.290;2023-08-12T08:25:21;21.30;76.20
81902;DHT22;71369;50.796;3.290;2023-08-12T08:27:48;22.10;74.50
81902;DHT22;71369;50.796;3.290;2023-08-12T08:30:14;22.20;70.40
81902;DHT22;71369;50.796;3.290;2023-08-12T08:32:40;21.90;73.10
81902;DHT22;71369;50.796;3.290;2023-08-12T08:35:06;21.80;74.40
81902;DHT22;71369;50.796;3.290;2023-08-12T08:37:32;21.60;72.60
81902;DHT22;71369;50.796;3.290;2023-08-12T08:39:58;21.60;73.60
81902;DHT22;71369;50.796;3.290;2023-08-12T08:42:24;21.70;73.50
81902;DHT22;71369;50.796;3.290;2023-08-12T08:44:53;22.30;70.70
81902;DHT22;71369;50.796;3.290;2023-08-12T08:47:26;22.70;72.90
81902;DHT22;71369;50.796;3.290;2023-08-12T08:49:56;23.20;69.00
81902;DHT22;71369;50.796;3.290;2023-08-12T08:52:25;23.20;67.70
81902;DHT22;71369;50.796;3.290;2023-08-12T08:54:52;23.80;67.30
81902;DHT22;71369;50.796;3.290;2023-08-12T08:57:18;24.40;65.80
81902;DHT22;71369;50.796;3.290;2023-08-12T08:59:45;24.40;63.70
81902;DHT22;71369;50.796;3.290;2023-08-12T09:02:16;23.80;65.30
81902;DHT22;71369;50.796;3.290;2023-08-12T09:04:44;24.00;65.50
81902;DHT22;71369;50.796;3.290;2023-08-12T09:07:11;23.80;63.40
81902;DHT22;71369;50.796;3.290;2023-08-12T09:09:39;23.20;66.80
81902;DHT22;71369;50.796;3.290;2023-08-12T09:12:07;23.00;68.40
81902;DHT22;71369;50.796;3.290;2023-08-12T09:14:34;24.30;64.40
81902;DHT22;71369;50.796;3.290;2023-08-12T09:17:00;24.30;60.40
81902;DHT22;71369;50.796;3.290;2023-08-12T09:19:26;24.30;60.90
81902;DHT22;71369;50.796;3.290;2023-08-12T09:21:53;25.30;60.70
81902;DHT22;71369;50.796;3.290;2023-08-12T09:24:28;26.00;58.10
81902;DHT22;71369;50.796;3.290;2023-08-12T09:26:55;27.10;55.50
81902;DHT22;71369;50.796;3.290;2023-08-12T09:29:39;26.80;53.30
81902;DHT22;71369;50.796;3.290;2023-08-12T09:32:25;25.90;57.70
81902;DHT22;71369;50.796;3.290;2023-08-12T09:34:53;27.40;54.20
81902;DHT22;71369;50.796;3.290;2023-08-12T09:37:20;27.10;54.10
81902;DHT22;71369;50.796;3.290;2023-08-12T09:39:47;26.70;55.50
81902;DHT22;71369;50.796;3.290;2023-08-12T09:42:13;25.90;54.60
81902;DHT22;71369;50.796;3.290;2023-08-12T09:44:40;25.90;56.80
81902;DHT22;71369;50.796;3.290;2023-08-12T09:47:06;27.00;53.00
81902;DHT22;71369;50.796;3.290;2023-08-12T09:49:34;27.80;50.70
81902;DHT22;71369;50.796;3.290;2023-08-12T09:52:04;29.00;49.10
81902;DHT22;71369;50.796;3.290;2023-08-12T09:54:34;29.40;47.80
81902;DHT22;71369;50.796;3.290;2023-08-12T09:57:01;30.10;46.60
81902;DHT22;71369;50.796;3.290;2023-08-12T09:59:31;30.80;44.40
81902;DHT22;71369;50.796;3.290;2023-08-12T10:16:36;31.00;43.50
81902;DHT22;71369;50.796;3.290;2023-08-12T10:19:04;31.20;43.20
81902;DHT22;71369;50.796;3.290;2023-08-12T10:26:02;31.70;41.70
81902;DHT22;71369;50.796;3.290;2023-08-12T10:28:31;32.30;41.40
81902;DHT22;71369;50.796;3.290;2023-08-12T10:31:03;33.40;40.90
81902;DHT22;71369;50.796;3.290;2023-08-12T10:33:29;33.70;38.10
81902;DHT22;71369;50.796;3.290;2023-08-12T10:35:55;33.30;37.80
81902;DHT22;71369;50.796;3.290;2023-08-12T10:38:21;33.30;37.90
81902;DHT22;71369;50.796;3.290;2023-08-12T10:40:50;32.40;40.10
81902;DHT22;71369;50.796;3.290;2023-08-12T10:43:16;32.90;37.30
81902;DHT22;71369;50.796;3.290;2023-08-12T10:45:51;32.60;38.50
81902;DHT22;71369;50.796;3.290;2023-08-12T10:48:25;32.30;38.10
81902;DHT22;71369;50.796;3.290;2023-08-12T10:50:55;32.40;38.70
81902;DHT22;71369;50.796;3.290;2023-08-12T10:53:26;32.80;35.80
81902;DHT22;71369;50.796;3.290;2023-08-12T10:55:59;33.10;37.80
81902;DHT22;71369;50.796;3.290;2023-08-12T10:58:33;33.40;36.10
81902;DHT22;71369;50.796;3.290;2023-08-12T11:00:59;33.10;36.10
81902;DHT22;71369;50.796;3.290;2023-08-12T11:03:25;33.70;37.50
81902;DHT22;71369;50.796;3.290;2023-08-12T11:05:53;34.00;35.10
81902;DHT22;71369;50.796;3.290;2023-08-12T11:08:25;34.00;36.70
81902;DHT22;71369;50.796;3.290;2023-08-12T11:10:52;34.90;34.30
81902;DHT22;71369;50.796;3.290;2023-08-12T11:13:19;34.10;34.40
81902;DHT22;71369;50.796;3.290;2023-08-12T11:15:47;32.40;37.10
81902;DHT22;71369;50.796;3.290;2023-08-12T11:18:18;32.30;37.40
81902;DHT22;71369;50.796;3.290;2023-08-12T11:20:45;33.00;38.00
81902;DHT22;71369;50.796;3.290;2023-08-12T11:23:12;33.00;37.10
81902;DHT22;71369;50.796;3.290;2023-08-12T11:25:40;32.80;37.70
81902;DHT22;71369;50.796;3.290;2023-08-12T11:28:07;30.60;38.20
81902;DHT22;71369;50.796;3.290;2023-08-12T11:30:33;29.90;44.40
81902;DHT22;71369;50.796;3.290;2023-08-12T11:33:00;29.80;43.10
81902;DHT22;71369;50.796;3.290;2023-08-12T11:35:27;29.00;42.70
81902;DHT22;71369;50.796;3.290;2023-08-12T11:37:55;28.30;45.20
81902;DHT22;71369;50.796;3.290;2023-08-12T11:40:23;28.60;45.00
81902;DHT22;71369;50.796;3.290;2023-08-12T11:42:50;27.90;43.70
81902;DHT22;71369;50.796;3.290;2023-08-12T11:45:18;29.00;46.00
81902;DHT22;71369;50.796;3.290;2023-08-12T11:47:44;30.40;41.80
81902;DHT22;71369;50.796;3.290;2023-08-12T11:50:12;29.40;40.70
81902;DHT22;71369;50.796;3.290;2023-08-12T11:52:39;28.30;45.90
81902;DHT22;71369;50.796;3.290;2023-08-12T11:55:06;29.50;45.00
81902;DHT22;71369;50.796;3.290;2023-08-12T11:57:32;29.10;43.40
81902;DHT22;71369;50.796;3.290;2023-08-12T12:00:05;28.50;44.50
81902;DHT22;71369;50.796;3.290;2023-08-12T12:02:40;29.90;43.00
81902;DHT22;71369;50.796;3.290;2023-08-12T12:05:13;30.80;39.00
81902;DHT22;71369;50.796;3.290;2023-08-12T12:07:39;31.00;38.50
81902;DHT22;71369;50.796;3.290;2023-08-12T12:10:06;31.90;39.20
81902;DHT22;71369;50.796;3.290;2023-08-12T12:12:36;33.10;36.70
81902;DHT22;71369;50.796;3.290;2023-08-12T12:15:02;32.80;33.10
81902;DHT22;71369;50.796;3.290;2023-08-12T12:17:28;31.70;34.40
81902;DHT22;71369;50.796;3.290;2023-08-12T12:19:58;30.00;38.20
81902;DHT22;71369;50.796;3.290;2023-08-12T12:22:29;29.80;39.50
81902;DHT22;71369;50.796;3.290;2023-08-12T12:25:00;28.70;37.90
81902;DHT22;71369;50.796;3.290;2023-08-12T12:27:26;28.60;40.60
81902;DHT22;71369;50.796;3.290;2023-08-12T12:29:53;28.00;41.50
81902;DHT22;71369;50.796;3.290;2023-08-12T12:32:20;27.00;42.10
81902;DHT22;71369;50.796;3.290;2023-08-12T12:34:46;27.90;44.90
81902;DHT22;71369;50.796;3.290;2023-08-12T12:37:13;29.00;42.00
81902;DHT22;71369;50.796;3.290;2023-08-12T12:39:39;29.90;38.30
81902;DHT22;71369;50.796;3.290;2023-08-12T12:42:05;30.40;38.30
81902;DHT22;71369;50.796;3.290;2023-08-12T12:44:31;30.30;35.70
81902;DHT22;71369;50.796;3.290;2023-08-12T12:46:57;30.30;37.70
81902;DHT22;71369;50.796;3.290;2023-08-12T12:49:23;31.00;37.20
81902;DHT22;71369;50.796;3.290;2023-08-12T12:51:49;31.00;35.70
81902;DHT22;71369;50.796;3.290;2023-08-12T12:54:15;31.10;36.50
81902;DHT22;71369;50.796;3.290;2023-08-12T12:56:41;31.00;35.70
81902;DHT22;71369;50.796;3.290;2023-08-12T12:59:07;30.50;35.90
81902;DHT22;71369;50.796;3.290;2023-08-12T13:01:33;30.20;36.00
81902;DHT22;71369;50.796;3.290;2023-08-12T13:03:59;29.00;38.40
81902;DHT22;71369;50.796;3.290;2023-08-12T13:06:25;28.20;40.80
81902;DHT22;71369;50.796;3.290;2023-08-12T13:08:52;28.30;42.00
81902;DHT22;71369;50.796;3.290;2023-08-12T13:11:17;29.40;41.00
81902;DHT22;71369;50.796;3.290;2023-08-12T13:13:43;29.00;38.20
81902;DHT22;71369;50.796;3.290;2023-08-12T13:16:09;29.50;41.10
81902;DHT22;71369;50.796;3.290;2023-08-12T13:18:35;30.80;39.20
81902;DHT22;71369;50.796;3.290;2023-08-12T13:21:00;31.50;36.40
81902;DHT22;71369;50.796;3.290;2023-08-12T13:23:26;31.40;36.10
81902;DHT22;71369;50.796;3.290;2023-08-12T13:25:52;31.20;37.30
81902;DHT22;71369;50.796;3.290;2023-08-12T13:28:18;31.30;36.40
81902;DHT22;71369;50.796;3.290;2023-08-12T13:30:45;31.20;33.60
81902;DHT22;71369;50.796;3.290;2023-08-12T13:33:11;31.40;34.40
81902;DHT22;71369;50.796;3.290;2023-08-12T13:35:37;30.50;34.70
81902;DHT22;71369;50.796;3.290;2023-08-12T13:38:03;30.10;36.10
81902;DHT22;71369;50.796;3.290;2023-08-12T13:40:29;30.30;35.80
81902;DHT22;71369;50.796;3.290;2023-08-12T13:42:55;30.70;37.20
81902;DHT22;71369;50.796;3.290;2023-08-12T13:45:20;31.20;34.90
81902;DHT22;71369;50.796;3.290;2023-08-12T13:47:46;31.00;33.70
81902;DHT22;71369;50.796;3.290;2023-08-12T13:50:12;30.00;35.70
81902;DHT22;71369;50.796;3.290;2023-08-12T13:52:39;29.50;36.70
81902;DHT22;71369;50.796;3.290;2023-08-12T13:55:05;29.10;37.00
81902;DHT22;71369;50.796;3.290;2023-08-12T13:57:31;29.80;38.20
81902;DHT22;71369;50.796;3.290;2023-08-12T13:59:57;29.00;37.00
81902;DHT22;71369;50.796;3.290;2023-08-12T14:02:23;28.20;39.30
81902;DHT22;71369;50.796;3.290;2023-08-12T14:04:49;27.70;39.20
81902;DHT22;71369;50.796;3.290;2023-08-12T14:07:15;27.30;40.60
81902;DHT22;71369;50.796;3.290;2023-08-12T14:09:41;27.30;40.70
81902;DHT22;71369;50.796;3.290;2023-08-12T14:12:07;27.20;40.00
81902;DHT22;71369;50.796;3.290;2023-08-12T14:14:33;26.80;42.60
81902;DHT22;71369;50.796;3.290;2023-08-12T14:16:59;26.20;42.40
81902;DHT22;71369;50.796;3.290;2023-08-12T14:19:24;25.90;42.60
81902;DHT22;71369;50.796;3.290;2023-08-12T14:21:50;25.30;43.80
81902;DHT22;71369;50.796;3.290;2023-08-12T14:24:16;25.30;44.00
81902;DHT22;71369;50.796;3.290;2023-08-12T14:26:42;25.40;44.50
81902;DHT22;71369;50.796;3.290;2023-08-12T14:29:07;25.40;44.40
81902;DHT22;71369;50.796;3.290;2023-08-12T14:31:33;25.30;44.50
81902;DHT22;71369;50.796;3.290;2023-08-12T14:34:00;25.10;44.00
81902;DHT22;71369;50.796;3.290;2023-08-12T14:36:26;24.90;44.80
81902;DHT22;71369;50.796;3.290;2023-08-12T14:38:53;25.10;44.60
81902;DHT22;71369;50.796;3.290;2023-08-12T14:41:19;25.00;44.10
81902;DHT22;71369;50.796;3.290;2023-08-12T14:43:44;24.80;45.10
81902;DHT22;71369;50.796;3.290;2023-08-12T14:46:10;24.60;46.50
81902;DHT22;71369;50.796;3.290;2023-08-12T14:48:36;24.60;48.70
81902;DHT22;71369;50.796;3.290;2023-08-12T14:51:02;24.90;46.40
81902;DHT22;71369;50.796;3.290;2023-08-12T14:53:28;24.90;44.30
81902;DHT22;71369;50.796;3.290;2023-08-12T14:55:54;25.00;45.60
81902;DHT22;71369;50.796;3.290;2023-08-12T14:58:19;24.80;44.50
81902;DHT22;71369;50.796;3.290;2023-08-12T15:00:48;24.90;46.30
81902;DHT22;71369;50.796;3.290;2023-08-12T15:03:14;24.60;45.20
81902;DHT22;71369;50.796;3.290;2023-08-12T15:05:41;24.60;46.90
81902;DHT22;71369;50.796;3.290;2023-08-12T15:08:06;24.80;47.80
81902;DHT22;71369;50.796;3.290;2023-08-12T15:10:33;24.80;45.60
81902;DHT22;71369;50.796;3.290;2023-08-12T15:12:59;24.80;45.60
81902;DHT22;71369;50.796;3.290;2023-08-12T15:15:25;24.80;47.80
81902;DHT22;71369;50.796;3.290;2023-08-12T15:17:51;24.60;46.50
81902;DHT22;71369;50.796;3.290;2023-08-12T15:20:17;24.60;45.50
81902;DHT22;71369;50.796;3.290;2023-08-12T15:22:43;24.30;46.30
81902;DHT22;71369;50.796;3.290;2023-08-12T15:25:09;24.00;45.70
81902;DHT22;71369;50.796;3.290;2023-08-12T15:27:34;24.10;46.50
81902;DHT22;71369;50.796;3.290;2023-08-12T15:30:00;24.00;46.40
81902;DHT22;71369;50.796;3.290;2023-08-12T15:32:26;24.00;46.50
81902;DHT22;71369;50.796;3.290;2023-08-12T15:34:52;24.10;46.80
81902;DHT22;71369;50.796;3.290;2023-08-12T15:37:18;23.90;49.60
81902;DHT22;71369;50.796;3.290;2023-08-12T15:39:44;24.00;47.00
81902;DHT22;71369;50.796;3.290;2023-08-12T15:42:10;24.00;46.70
81902;DHT22;71369;50.796;3.290;2023-08-12T15:44:36;24.00;46.80
81902;DHT22;71369;50.796;3.290;2023-08-12T15:47:02;23.70;46.50